createdAt,value
2023-05-14T00:00:49.640Z,62.10
2023-05-14T00:02:03.921Z,62.44
2023-05-14T00:03:06.887Z,62.85
2023-05-14T00:04:10.122Z,62.97
2023-05-14T00:05:13.033Z,62.50
2023-05-14T00:06:16.167Z,62.26
2023-05-14T00:07:18.942Z,61.94
2023-05-14T00:08:21.733Z,61.75
2023-05-14T00:09:24.761Z,61.43
2023-05-14T00:10:28.161Z,61.02
2023-05-14T00:11:30.932Z,60.91
2023-05-14T00:12:33.954Z,60.66
2023-05-14T00:13:36.885Z,60.54
2023-05-14T00:14:39.672Z,60.32
2023-05-14T00:15:42.614Z,59.80
2023-05-14T00:16:45.369Z,59.35
2023-05-14T00:17:48.208Z,59.23
2023-05-14T00:18:51.128Z,59.21
2023-05-14T00:19:54.019Z,59.27
2023-05-14T00:20:56.725Z,59.61
2023-05-14T00:21:59.495Z,59.80
2023-05-14T00:23:02.232Z,60.08
2023-05-14T00:24:05.474Z,60.26
2023-05-14T00:25:08.969Z,60.35
2023-05-14T00:26:11.772Z,60.45
2023-05-14T00:27:14.936Z,60.87
2023-05-14T00:28:17.724Z,61.21
2023-05-14T00:29:20.689Z,61.27
2023-05-14T00:30:24.061Z,61.27
2023-05-14T00:31:27.092Z,61.68
2023-05-14T00:32:29.946Z,61.78
2023-05-14T00:33:33.066Z,61.79
2023-05-14T00:34:36.683Z,61.80
2023-05-14T00:35:39.627Z,62.13
2023-05-14T00:36:42.413Z,62.27
2023-05-14T00:37:45.265Z,62.55
2023-05-14T00:38:48.017Z,63.13
2023-05-14T00:39:50.941Z,63.38
2023-05-14T00:40:53.981Z,63.30
2023-05-14T00:41:56.777Z,63.19
2023-05-14T00:42:59.901Z,62.95
2023-05-14T00:44:02.621Z,62.64
2023-05-14T00:45:06.793Z,62.34
2023-05-14T00:46:09.759Z,62.30
2023-05-14T00:47:12.967Z,61.97
2023-05-14T00:48:15.860Z,61.77
2023-05-14T00:49:19.138Z,61.54
2023-05-14T00:50:22.875Z,61.37
2023-05-14T00:51:25.970Z,61.24
2023-05-14T00:52:28.913Z,61.16
2023-05-14T00:53:31.724Z,61.12
2023-05-14T00:54:35.336Z,61.05
2023-05-14T00:55:39.003Z,61.04
2023-05-14T00:56:45.064Z,60.83
2023-05-14T00:57:49.230Z,60.76
2023-05-14T00:58:52.056Z,60.54
2023-05-14T00:59:55.424Z,60.57
2023-05-14T01:00:58.230Z,60.41
2023-05-14T01:02:01.548Z,60.36
2023-05-14T01:03:05.419Z,60.24
2023-05-14T01:04:09.980Z,60.23
2023-05-14T01:05:13.044Z,60.20
2023-05-14T01:06:23.386Z,60.03
2023-05-14T01:07:59.535Z,60.05
2023-05-14T01:09:13.073Z,59.48
2023-05-14T01:10:24.492Z,59.35
2023-05-14T01:11:41.299Z,59.67
2023-05-14T01:12:48.760Z,59.75
2023-05-14T01:14:06.616Z,60.08
2023-05-14T01:15:13.896Z,60.32
2023-05-14T01:16:20.040Z,60.64
2023-05-14T01:17:27.125Z,60.88
2023-05-14T01:18:32.554Z,61.34
2023-05-14T01:19:45.525Z,61.87
2023-05-14T01:20:52.238Z,62.05
2023-05-14T01:21:55.074Z,62.31
2023-05-14T01:22:58.165Z,62.79
2023-05-14T01:24:00.952Z,63.31
2023-05-14T01:25:05.566Z,63.29
2023-05-14T01:26:08.515Z,63.18
2023-05-14T01:27:11.590Z,62.59
2023-05-14T01:28:24.510Z,62.52
2023-05-14T01:29:29.081Z,62.67
2023-05-14T01:32:11.042Z,62.90
2023-05-14T01:33:16.379Z,62.27
2023-05-14T01:34:22.900Z,62.11
2023-05-14T01:35:28.434Z,62.10
2023-05-14T01:36:31.798Z,61.90
2023-05-14T01:37:36.468Z,61.64
2023-05-14T01:38:39.828Z,61.46
2023-05-14T01:39:43.188Z,61.45
2023-05-14T01:40:47.570Z,61.52
2023-05-14T01:41:52.534Z,61.38
2023-05-14T01:42:56.631Z,61.37
2023-05-14T01:43:59.492Z,61.41
2023-05-14T01:45:02.752Z,61.40
2023-05-14T01:46:05.636Z,61.43
2023-05-14T01:47:08.442Z,61.34
2023-05-14T01:48:11.394Z,61.32
2023-05-14T01:49:14.233Z,61.24
2023-05-14T01:50:17.660Z,61.20
2023-05-14T01:51:20.595Z,61.13
2023-05-14T01:52:23.509Z,61.09
2023-05-14T01:53:26.446Z,61.02
2023-05-14T01:54:29.179Z,61.04
2023-05-14T01:55:31.937Z,60.97
2023-05-14T01:56:34.713Z,60.97
2023-05-14T01:57:37.473Z,60.93
2023-05-14T01:58:40.333Z,61.03
2023-05-14T01:59:43.170Z,61.07
2023-05-14T02:00:46.000Z,61.04
2023-05-14T02:01:48.810Z,61.07
2023-05-14T02:02:51.724Z,60.96
2023-05-14T02:03:54.598Z,60.98
2023-05-14T02:04:58.079Z,60.93
2023-05-14T02:06:00.900Z,60.90
2023-05-14T02:07:04.014Z,60.88
2023-05-14T02:08:06.873Z,60.84
2023-05-14T02:09:09.720Z,60.78
2023-05-14T02:10:12.687Z,60.80
2023-05-14T02:11:15.586Z,60.78
2023-05-14T02:12:18.379Z,60.83
2023-05-14T02:13:21.422Z,60.80
2023-05-14T02:14:24.289Z,60.84
2023-05-14T02:15:27.155Z,60.87
2023-05-14T02:16:30.240Z,60.77
2023-05-14T02:17:33.125Z,60.73
2023-05-14T02:18:35.950Z,60.70
2023-05-14T02:19:38.801Z,60.76
2023-05-14T02:20:41.623Z,60.92
2023-05-14T02:21:44.566Z,60.99
2023-05-14T02:22:48.312Z,61.13
2023-05-14T02:23:51.227Z,61.19
2023-05-14T02:24:54.076Z,61.17
2023-05-14T02:25:56.809Z,61.17
2023-05-14T02:27:01.078Z,61.13
2023-05-14T02:28:04.092Z,61.14
2023-05-14T02:29:06.855Z,61.11
2023-05-14T02:30:10.659Z,61.16
2023-05-14T02:31:14.950Z,61.19
2023-05-14T02:32:18.034Z,61.23
2023-05-14T02:33:21.412Z,61.30
2023-05-14T02:34:24.613Z,61.38
2023-05-14T02:35:27.488Z,61.41
2023-05-14T02:36:30.716Z,61.45
2023-05-14T02:37:34.802Z,61.49
2023-05-14T02:38:37.659Z,61.56
2023-05-14T02:39:40.475Z,61.52
2023-05-14T02:40:43.234Z,61.47
2023-05-14T02:41:46.060Z,61.43
2023-05-14T02:42:49.006Z,61.40
2023-05-14T02:43:52.672Z,61.47
2023-05-14T02:44:55.739Z,61.53
2023-05-14T02:45:58.600Z,61.52
2023-05-14T02:47:01.510Z,61.54
2023-05-14T02:48:04.774Z,61.76
2023-05-14T02:49:07.736Z,61.70
2023-05-14T02:50:11.218Z,61.74
2023-05-14T02:51:14.035Z,61.73
2023-05-14T02:52:16.783Z,61.83
2023-05-14T02:53:19.601Z,61.83
2023-05-14T02:54:22.439Z,61.98
2023-05-14T02:55:26.498Z,61.95
2023-05-14T02:56:29.301Z,62.08
2023-05-14T02:57:32.075Z,62.16
2023-05-14T02:58:34.879Z,62.21
2023-05-14T02:59:38.042Z,62.24
2023-05-14T03:00:41.560Z,62.27
2023-05-14T03:01:45.023Z,62.33
2023-05-14T03:02:48.328Z,62.37
2023-05-14T03:03:51.766Z,62.42
2023-05-14T03:04:55.189Z,62.45
2023-05-14T03:05:57.963Z,62.44
2023-05-14T03:07:00.938Z,62.44
2023-05-14T03:08:03.795Z,62.35
2023-05-14T03:09:07.500Z,62.32
2023-05-14T03:10:10.735Z,62.21
2023-05-14T03:11:13.544Z,62.36
2023-05-14T03:12:16.466Z,62.26
2023-05-14T03:13:20.735Z,62.35
2023-05-14T03:14:23.585Z,62.41
2023-05-14T03:15:26.480Z,62.52
2023-05-14T03:16:29.463Z,62.52
2023-05-14T03:17:32.592Z,62.56
2023-05-14T03:18:36.676Z,62.63
2023-05-14T03:19:39.571Z,62.50
2023-05-14T03:20:43.436Z,62.53
2023-05-14T03:21:46.858Z,62.66
2023-05-14T03:22:49.746Z,62.64
2023-05-14T03:23:53.626Z,62.74
2023-05-14T03:24:56.408Z,62.77
2023-05-14T03:25:59.198Z,62.82
2023-05-14T03:27:01.998Z,62.79
2023-05-14T03:28:05.024Z,62.70
2023-05-14T03:29:07.849Z,62.83
2023-05-14T03:30:11.800Z,62.94
2023-05-14T03:31:16.414Z,63.03
2023-05-14T03:32:19.565Z,63.04
2023-05-14T03:33:22.853Z,63.05
2023-05-14T03:34:25.780Z,62.96
2023-05-14T03:35:28.534Z,63.08
2023-05-14T03:36:32.048Z,62.86
2023-05-14T03:37:34.893Z,63.12
2023-05-14T03:38:37.741Z,63.17
2023-05-14T03:39:40.557Z,63.19
2023-05-14T03:40:44.921Z,63.20
2023-05-14T03:41:48.281Z,63.29
2023-05-14T03:42:51.091Z,63.28
2023-05-14T03:43:54.122Z,63.20
2023-05-14T03:44:56.885Z,63.18
2023-05-14T03:46:00.003Z,63.20
2023-05-14T03:47:03.288Z,63.24
2023-05-14T03:48:06.776Z,63.16
2023-05-14T03:49:09.795Z,63.04
2023-05-14T03:50:12.613Z,63.10
2023-05-14T03:51:15.578Z,63.11
2023-05-14T03:52:18.424Z,63.17
2023-05-14T03:53:21.290Z,62.90
2023-05-14T03:54:24.189Z,63.04
2023-05-14T03:55:26.995Z,63.05
2023-05-14T03:56:29.742Z,63.18
2023-05-14T03:57:32.529Z,63.14
2023-05-14T03:58:35.362Z,63.21
2023-05-14T03:59:38.310Z,63.21
2023-05-14T04:00:44.208Z,63.30
2023-05-14T04:01:47.119Z,63.35
2023-05-14T04:02:50.057Z,63.24
2023-05-14T04:03:53.436Z,63.18
2023-05-14T04:04:56.666Z,63.09
2023-05-14T04:05:59.524Z,63.07
2023-05-14T04:07:02.398Z,63.02
2023-05-14T04:08:05.877Z,62.98
2023-05-14T04:09:10.687Z,62.93
2023-05-14T04:10:14.023Z,63.00
2023-05-14T04:11:16.898Z,62.93
2023-05-14T04:12:19.728Z,62.81
2023-05-14T04:13:22.867Z,62.77
2023-05-14T04:14:25.583Z,62.74
2023-05-14T04:15:28.706Z,62.83
2023-05-14T04:16:31.594Z,62.82
2023-05-14T04:17:35.096Z,62.79
2023-05-14T04:18:38.055Z,62.72
2023-05-14T04:19:40.841Z,62.72
2023-05-14T04:20:43.685Z,62.85
2023-05-14T04:21:46.562Z,62.96
2023-05-14T04:22:49.285Z,62.79
2023-05-14T04:23:52.036Z,62.72
2023-05-14T04:24:54.731Z,62.71
2023-05-14T04:25:58.360Z,62.65
2023-05-14T04:27:01.225Z,62.58
2023-05-14T04:28:04.091Z,62.45
2023-05-14T04:29:06.865Z,62.43
2023-05-14T04:30:10.191Z,62.32
2023-05-14T04:31:13.099Z,62.30
2023-05-14T04:32:15.998Z,62.42
2023-05-14T04:33:18.783Z,62.40
2023-05-14T04:34:21.754Z,62.35
2023-05-14T04:35:25.308Z,62.22
2023-05-14T04:36:28.116Z,62.15
2023-05-14T04:37:31.699Z,62.07
2023-05-14T04:38:34.707Z,62.14
2023-05-14T04:39:37.939Z,62.13
2023-05-14T04:40:43.858Z,61.99
2023-05-14T04:41:46.641Z,61.94
2023-05-14T04:42:49.402Z,61.78
2023-05-14T04:43:56.632Z,61.78
2023-05-14T04:44:59.473Z,61.77
2023-05-14T04:46:02.443Z,61.71
2023-05-14T04:47:06.885Z,61.48
2023-05-14T04:48:09.730Z,61.23
2023-05-14T04:49:12.761Z,61.21
2023-05-14T04:50:15.575Z,61.07
2023-05-14T04:51:18.510Z,61.08
2023-05-14T04:52:21.343Z,60.78
2023-05-14T04:53:24.460Z,60.53
2023-05-14T04:54:27.329Z,60.50
2023-05-14T04:55:30.350Z,60.46
2023-05-14T04:56:33.156Z,60.39
2023-05-14T04:57:35.869Z,60.24
2023-05-14T04:58:38.605Z,59.98
2023-05-14T04:59:41.436Z,59.90
2023-05-14T05:00:44.506Z,59.78
2023-05-14T05:01:47.461Z,59.78
2023-05-14T05:02:50.729Z,59.76
2023-05-14T05:03:53.579Z,59.82
2023-05-14T05:04:56.315Z,59.81
2023-05-14T05:05:59.315Z,59.75
2023-05-14T05:07:02.087Z,59.74
2023-05-14T05:08:04.847Z,59.58
2023-05-14T05:09:08.814Z,59.30
2023-05-14T05:10:11.811Z,58.97
2023-05-14T05:11:14.777Z,59.12
2023-05-14T05:12:17.571Z,59.19
2023-05-14T05:13:20.363Z,59.37
2023-05-14T05:14:23.169Z,59.70
2023-05-14T05:15:26.741Z,60.14
2023-05-14T05:16:29.912Z,60.39
2023-05-14T05:17:32.989Z,60.52
2023-05-14T05:18:35.924Z,60.70
2023-05-14T05:19:43.805Z,60.80
2023-05-14T05:20:47.412Z,60.81
2023-05-14T05:21:51.176Z,61.18
2023-05-14T05:22:54.029Z,60.94
2023-05-14T05:23:56.851Z,61.05
2023-05-14T05:24:59.906Z,61.16
2023-05-14T05:26:02.620Z,61.07
2023-05-14T05:27:06.107Z,61.16
2023-05-14T05:28:08.952Z,61.04
2023-05-14T05:29:11.872Z,60.83
2023-05-14T05:30:14.647Z,60.97
2023-05-14T05:31:19.685Z,61.02
2023-05-14T05:32:23.237Z,60.95
2023-05-14T05:33:26.080Z,61.15
2023-05-14T05:34:28.915Z,60.98
2023-05-14T05:35:31.615Z,60.93
2023-05-14T05:36:34.489Z,61.02
2023-05-14T05:37:37.216Z,61.28
2023-05-14T05:38:39.970Z,61.13
2023-05-14T05:39:42.830Z,61.10
2023-05-14T05:40:45.549Z,60.76
2023-05-14T05:41:48.360Z,60.26
2023-05-14T05:42:51.152Z,60.02
2023-05-14T05:43:53.994Z,59.96
2023-05-14T05:44:56.849Z,59.73
2023-05-14T05:46:01.620Z,59.44
2023-05-14T05:47:04.839Z,59.46
2023-05-14T05:48:07.828Z,59.32
2023-05-14T05:49:10.620Z,59.14
2023-05-14T05:50:13.556Z,59.16
2023-05-14T05:51:16.439Z,59.03
2023-05-14T05:52:19.511Z,58.88
2023-05-14T05:53:22.556Z,58.88
2023-05-14T05:54:25.712Z,58.76
2023-05-14T05:55:29.672Z,58.77
2023-05-14T05:56:32.497Z,58.66
2023-05-14T05:57:35.341Z,58.73
2023-05-14T05:58:38.787Z,59.07
2023-05-14T05:59:41.577Z,59.26
2023-05-14T06:00:44.652Z,59.39
2023-05-14T06:01:48.211Z,59.22
2023-05-14T06:02:51.117Z,58.84
2023-05-14T06:03:53.897Z,58.60
2023-05-14T06:04:56.766Z,58.45
2023-05-14T06:05:59.675Z,58.52
2023-05-14T06:07:02.516Z,58.06
2023-05-14T06:08:05.795Z,57.68
2023-05-14T06:09:09.227Z,57.71
2023-05-14T06:10:12.022Z,57.85
2023-05-14T06:11:15.415Z,58.22
2023-05-14T06:12:18.208Z,58.57
2023-05-14T06:13:20.990Z,58.86
2023-05-14T06:14:23.770Z,58.94
2023-05-14T06:15:26.607Z,58.79
2023-05-14T06:16:31.664Z,58.48
2023-05-14T06:17:34.549Z,58.56
2023-05-14T06:18:37.447Z,58.44
2023-05-14T06:19:40.372Z,58.54
2023-05-14T06:20:43.287Z,58.35
2023-05-14T06:21:46.125Z,57.84
2023-05-14T06:22:48.976Z,57.96
2023-05-14T06:23:51.732Z,57.51
2023-05-14T06:24:54.740Z,57.26
2023-05-14T06:25:57.609Z,57.27
2023-05-14T06:27:00.380Z,57.35
2023-05-14T06:28:03.328Z,57.08
2023-05-14T06:29:06.178Z,56.53
2023-05-14T06:30:10.443Z,56.53
2023-05-14T06:31:13.791Z,56.02
2023-05-14T06:32:16.924Z,56.29
2023-05-14T06:33:23.415Z,56.23
2023-05-14T06:34:26.347Z,55.97
2023-05-14T06:35:29.363Z,55.84
2023-05-14T06:36:32.185Z,55.38
2023-05-14T06:37:34.956Z,55.66
2023-05-14T06:38:37.893Z,55.70
2023-05-14T06:39:46.517Z,55.81
2023-05-14T06:40:49.390Z,55.58
2023-05-14T06:41:52.170Z,56.06
2023-05-14T06:42:55.079Z,56.10
2023-05-14T06:43:57.873Z,56.01
2023-05-14T06:45:00.759Z,55.43
2023-05-14T06:46:03.617Z,55.32
2023-05-14T06:47:08.619Z,55.46
2023-05-14T06:48:11.774Z,55.20
2023-05-14T06:49:14.895Z,55.00
2023-05-14T06:50:18.065Z,55.17
2023-05-14T06:51:20.968Z,55.28
2023-05-14T06:52:23.772Z,55.16
2023-05-14T06:53:26.730Z,54.79
2023-05-14T06:54:30.159Z,54.81
2023-05-14T06:55:32.989Z,54.73
2023-05-14T06:56:35.810Z,55.22
2023-05-14T06:57:40.644Z,55.06
2023-05-14T06:58:43.752Z,54.88
2023-05-14T06:59:46.629Z,54.69
2023-05-14T07:00:49.525Z,54.57
2023-05-14T07:01:52.401Z,54.23
2023-05-14T07:02:57.671Z,54.26
2023-05-14T07:04:00.738Z,54.45
2023-05-14T07:05:03.630Z,54.38
2023-05-14T07:06:06.851Z,54.04
2023-05-14T07:07:13.527Z,53.66
2023-05-14T07:08:16.315Z,53.84
2023-05-14T07:09:19.123Z,53.84
2023-05-14T07:10:22.376Z,54.11
2023-05-14T07:11:25.529Z,53.92
2023-05-14T07:12:28.343Z,53.96
2023-05-14T07:13:31.166Z,53.70
2023-05-14T07:14:34.394Z,53.76
2023-05-14T07:15:37.214Z,53.48
2023-05-14T07:16:41.678Z,53.27
2023-05-14T07:17:45.214Z,52.98
2023-05-14T07:18:48.053Z,53.00
2023-05-14T07:19:51.374Z,53.11
2023-05-14T07:20:54.115Z,53.24
2023-05-14T07:21:57.899Z,53.34
2023-05-14T07:23:00.797Z,53.26
2023-05-14T07:24:04.036Z,53.16
2023-05-14T07:25:07.769Z,53.41
2023-05-14T07:26:10.642Z,53.53
2023-05-14T07:27:13.442Z,53.57
2023-05-14T07:28:16.273Z,53.54
2023-05-14T07:29:19.005Z,53.55
2023-05-14T07:30:21.873Z,53.42
2023-05-14T07:31:25.054Z,53.51
2023-05-14T07:32:27.895Z,53.51
2023-05-14T07:33:30.982Z,53.49
2023-05-14T07:34:33.903Z,53.30
2023-05-14T07:35:36.739Z,53.48
2023-05-14T07:36:39.886Z,53.48
2023-05-14T07:37:42.967Z,53.31
2023-05-14T07:38:45.982Z,53.34
2023-05-14T07:39:49.283Z,53.34
2023-05-14T07:40:52.300Z,53.34
2023-05-14T07:41:55.374Z,53.03
2023-05-14T07:42:58.192Z,52.96
2023-05-14T07:44:01.277Z,52.80
2023-05-14T07:45:04.765Z,52.79
2023-05-14T07:46:07.653Z,52.76
2023-05-14T07:47:11.072Z,52.79
2023-05-14T07:48:14.457Z,52.73
2023-05-14T07:49:17.457Z,52.79
2023-05-14T07:50:20.868Z,52.80
2023-05-14T07:51:24.121Z,53.19
2023-05-14T07:52:26.965Z,52.69
2023-05-14T07:53:29.813Z,52.76
2023-05-14T07:54:32.695Z,53.06
2023-05-14T07:55:35.528Z,52.98
2023-05-14T07:56:38.305Z,53.28
2023-05-14T07:57:41.267Z,53.47
2023-05-14T07:58:44.098Z,53.26
2023-05-14T07:59:48.457Z,53.07
2023-05-14T08:00:51.583Z,53.34
2023-05-14T08:01:54.536Z,53.15
2023-05-14T08:02:57.635Z,53.01
2023-05-14T08:04:01.075Z,52.91
2023-05-14T08:05:04.703Z,52.94
2023-05-14T08:06:07.587Z,52.91
2023-05-14T08:07:11.224Z,52.91
2023-05-14T08:08:13.989Z,52.86
2023-05-14T08:09:17.053Z,52.94
2023-05-14T08:10:19.846Z,53.07
2023-05-14T08:11:22.934Z,53.15
2023-05-14T08:12:26.730Z,53.22
2023-05-14T08:13:29.519Z,53.26
2023-05-14T08:14:32.472Z,53.47
2023-05-14T08:15:35.553Z,53.64
2023-05-14T08:16:38.871Z,54.06
2023-05-14T08:17:41.833Z,54.24
2023-05-14T08:18:44.704Z,54.03
2023-05-14T08:19:47.738Z,54.11
2023-05-14T08:20:51.377Z,54.67
2023-05-14T08:21:54.570Z,54.48
2023-05-14T08:23:00.434Z,54.64
2023-05-14T08:24:03.624Z,54.40
2023-05-14T08:25:07.770Z,54.44
2023-05-14T08:26:11.141Z,54.14
2023-05-14T08:27:13.973Z,54.11
2023-05-14T08:28:16.734Z,54.04
2023-05-14T08:29:19.587Z,54.18
2023-05-14T08:30:23.040Z,54.09
2023-05-14T08:31:26.180Z,53.80
2023-05-14T08:32:29.671Z,53.82
2023-05-14T08:33:32.593Z,53.79
2023-05-14T08:34:35.361Z,53.64
2023-05-14T08:35:38.147Z,53.63
2023-05-14T08:36:40.877Z,53.79
2023-05-14T08:37:43.691Z,54.10
2023-05-14T08:38:46.400Z,54.13
2023-05-14T08:39:49.184Z,54.26
2023-05-14T08:40:58.793Z,54.16
2023-05-14T08:42:06.230Z,54.13
2023-05-14T08:43:11.649Z,54.13
2023-05-14T08:44:18.726Z,54.21
2023-05-14T08:45:26.044Z,54.42
2023-05-14T08:46:31.738Z,54.49
2023-05-14T08:47:34.851Z,54.57
2023-05-14T08:48:40.718Z,54.55
2023-05-14T08:49:47.225Z,54.60
2023-05-14T08:50:50.336Z,54.52
2023-05-14T08:51:53.476Z,54.48
2023-05-14T08:52:56.261Z,54.46
2023-05-14T08:54:02.233Z,54.38
2023-05-14T08:55:06.591Z,54.43
2023-05-14T08:56:09.823Z,54.61
2023-05-14T08:57:13.134Z,54.60
2023-05-14T08:58:15.987Z,54.79
2023-05-14T08:59:19.309Z,55.16
2023-05-14T09:00:23.102Z,54.72
2023-05-14T09:01:26.305Z,54.36
2023-05-14T09:02:31.336Z,54.26
2023-05-14T09:03:35.975Z,53.96
2023-05-14T09:04:39.813Z,54.13
2023-05-14T09:05:43.092Z,53.91
2023-05-14T09:06:49.445Z,53.68
2023-05-14T09:07:52.369Z,53.56
2023-05-14T09:08:56.138Z,53.79
2023-05-14T09:09:59.581Z,54.11
2023-05-14T09:11:02.863Z,53.77
2023-05-14T09:12:06.299Z,53.49
2023-05-14T09:13:10.225Z,53.30
2023-05-14T09:14:13.088Z,53.28
2023-05-14T09:15:16.142Z,53.00
2023-05-14T09:16:20.688Z,52.62
2023-05-14T09:17:26.819Z,52.50
2023-05-14T09:18:29.736Z,52.63
2023-05-14T09:19:32.862Z,52.89
2023-05-14T09:20:35.942Z,52.64
2023-05-14T09:21:38.748Z,52.66
2023-05-14T09:22:42.037Z,52.20
2023-05-14T09:23:45.376Z,52.49
2023-05-14T09:25:02.741Z,52.95
2023-05-14T09:26:06.053Z,52.57
2023-05-14T09:27:10.565Z,52.36
2023-05-14T09:28:17.281Z,52.04
2023-05-14T09:29:20.337Z,51.62
2023-05-14T09:30:24.905Z,51.41
2023-05-14T09:31:32.118Z,51.15
2023-05-14T09:32:40.322Z,51.13
2023-05-14T09:33:43.819Z,50.89
2023-05-14T09:34:46.583Z,50.78
2023-05-14T09:35:49.363Z,50.74
2023-05-14T09:37:03.649Z,50.55
2023-05-14T09:38:06.444Z,50.70
2023-05-14T09:39:09.735Z,50.63
2023-05-14T09:40:13.932Z,50.45
2023-05-14T09:41:17.007Z,50.22
2023-05-14T09:42:20.114Z,50.13
2023-05-14T09:43:22.900Z,50.08
2023-05-14T09:44:26.201Z,50.34
2023-05-14T09:45:29.352Z,50.10
2023-05-14T09:46:32.189Z,50.27
2023-05-14T09:47:36.042Z,50.24
2023-05-14T09:48:38.978Z,50.12
2023-05-14T09:49:41.952Z,50.72
2023-05-14T09:50:46.606Z,51.14
2023-05-14T09:51:50.411Z,51.32
2023-05-14T09:52:55.746Z,51.49
2023-05-14T09:53:58.821Z,50.99
2023-05-14T09:55:02.404Z,50.76
2023-05-14T09:56:05.552Z,50.48
2023-05-14T09:57:08.436Z,50.18
2023-05-14T09:58:11.660Z,49.96
2023-05-14T09:59:14.994Z,49.92
2023-05-14T10:00:18.090Z,50.04
2023-05-14T10:01:22.470Z,50.30
2023-05-14T10:02:27.401Z,50.45
2023-05-14T10:03:30.594Z,50.60
2023-05-14T10:04:34.200Z,50.49
2023-05-14T10:05:39.998Z,50.27
2023-05-14T10:06:46.547Z,50.13
2023-05-14T10:07:52.294Z,50.15
2023-05-14T10:08:57.032Z,50.07
2023-05-14T10:10:03.099Z,50.15
2023-05-14T10:11:13.255Z,50.42
2023-05-14T10:12:20.682Z,50.78
2023-05-14T10:13:39.248Z,50.82
2023-05-14T10:14:49.834Z,51.08
2023-05-14T10:16:00.684Z,50.89
2023-05-14T10:17:06.016Z,51.29
2023-05-14T10:18:12.479Z,51.11
2023-05-14T10:19:17.877Z,51.21
2023-05-14T10:20:22.847Z,50.80
2023-05-14T10:21:28.616Z,51.06
2023-05-14T10:22:34.953Z,51.43
2023-05-14T10:23:38.646Z,51.09
2023-05-14T10:24:41.972Z,50.61
2023-05-14T10:25:45.615Z,50.98
2023-05-14T10:26:48.969Z,50.96
2023-05-14T10:27:51.863Z,50.73
2023-05-14T10:28:55.999Z,50.29
2023-05-14T10:29:58.772Z,50.10
2023-05-14T10:31:01.837Z,49.83
2023-05-14T10:32:06.807Z,49.63
2023-05-14T10:33:13.284Z,49.62
2023-05-14T10:34:37.959Z,49.24
2023-05-14T10:36:00.810Z,48.74
2023-05-14T10:37:16.369Z,49.15
2023-05-14T10:38:23.271Z,49.21
2023-05-14T10:39:47.587Z,49.17
2023-05-14T10:40:53.500Z,49.02
2023-05-14T10:41:56.982Z,49.29
2023-05-14T10:42:59.874Z,49.51
2023-05-14T10:44:09.493Z,49.57
2023-05-14T10:45:14.841Z,49.02
2023-05-14T10:46:18.015Z,48.80
2023-05-14T10:47:21.974Z,48.80
2023-05-14T10:48:26.004Z,48.11
2023-05-14T10:49:42.424Z,48.18
2023-05-14T10:50:48.284Z,48.22
2023-05-14T10:51:53.444Z,48.30
2023-05-14T10:52:57.135Z,48.08
2023-05-14T10:54:01.643Z,47.74
2023-05-14T10:55:10.235Z,47.06
2023-05-14T10:56:14.608Z,46.98
2023-05-14T10:57:19.006Z,46.91
2023-05-14T10:58:22.341Z,46.67
2023-05-14T10:59:28.448Z,46.42
2023-05-14T11:00:34.145Z,45.83
2023-05-14T11:01:36.954Z,45.70
2023-05-14T11:02:41.255Z,45.82
2023-05-14T11:03:46.213Z,45.23
2023-05-14T11:04:59.443Z,45.11
2023-05-14T11:06:03.736Z,45.50
2023-05-14T11:07:06.695Z,45.89
2023-05-14T11:08:10.548Z,46.12
2023-05-14T11:09:17.557Z,46.76
2023-05-14T11:10:22.054Z,46.35
2023-05-14T11:11:26.222Z,45.60
2023-05-14T11:12:29.639Z,45.50
2023-05-14T11:13:34.418Z,45.59
2023-05-14T11:14:37.217Z,45.37
2023-05-14T11:15:46.997Z,45.37
2023-05-14T11:16:50.470Z,45.65
2023-05-14T11:17:54.405Z,45.77
2023-05-14T11:19:04.864Z,45.66
2023-05-14T11:20:09.789Z,46.15
2023-05-14T11:21:13.097Z,46.58
2023-05-14T11:22:15.943Z,46.78
2023-05-14T11:23:18.872Z,46.57
2023-05-14T11:24:21.637Z,46.29
2023-05-14T11:25:25.899Z,46.15
2023-05-14T11:26:28.797Z,46.33
2023-05-14T11:27:34.395Z,45.93
2023-05-14T11:28:38.778Z,45.87
2023-05-14T11:29:46.525Z,45.83
2023-05-14T11:30:50.722Z,45.42
2023-05-14T11:31:54.490Z,45.40
2023-05-14T11:32:58.758Z,45.36
2023-05-14T11:34:05.026Z,45.30
2023-05-14T11:35:08.397Z,45.22
2023-05-14T11:36:12.564Z,44.78
2023-05-14T11:37:16.546Z,44.47
2023-05-14T11:38:21.180Z,44.33
2023-05-14T11:39:23.972Z,44.15
2023-05-14T11:40:26.955Z,44.14
2023-05-14T11:41:31.061Z,44.19
2023-05-14T11:42:33.841Z,43.02
2023-05-14T11:43:36.751Z,42.25
2023-05-14T11:44:39.632Z,42.84
2023-05-14T11:45:42.444Z,43.86
2023-05-14T11:46:54.692Z,44.36
2023-05-14T11:47:57.572Z,43.31
2023-05-14T11:49:00.369Z,42.94
2023-05-14T11:50:03.733Z,41.77
2023-05-14T11:51:06.877Z,40.91
2023-05-14T11:52:11.744Z,41.05
2023-05-14T11:53:25.808Z,41.16
2023-05-14T11:54:29.391Z,41.20
2023-05-14T11:55:35.984Z,40.80
2023-05-14T11:56:38.762Z,38.91
2023-05-14T11:57:42.187Z,38.08
2023-05-14T11:58:55.812Z,37.84
2023-05-14T11:59:58.710Z,38.03
2023-05-14T12:01:01.690Z,38.05
2023-05-14T12:02:05.627Z,38.47
2023-05-14T12:03:10.172Z,39.18
2023-05-14T12:04:14.246Z,38.87
2023-05-14T12:05:17.203Z,38.29
2023-05-14T12:06:19.959Z,37.75
2023-05-14T12:07:22.802Z,37.89
2023-05-14T12:08:30.680Z,38.17
2023-05-14T12:09:36.849Z,38.88
2023-05-14T12:10:42.773Z,39.77
2023-05-14T12:11:46.606Z,38.40
2023-05-14T12:12:49.860Z,38.96
2023-05-14T12:13:53.140Z,38.70
2023-05-14T12:14:55.995Z,38.75
2023-05-14T12:16:02.257Z,38.15
2023-05-14T12:17:15.867Z,37.62
2023-05-14T12:18:24.724Z,37.42
2023-05-14T12:19:30.359Z,37.12
2023-05-14T12:20:33.184Z,37.08
2023-05-14T12:21:36.635Z,36.69
2023-05-14T12:22:42.037Z,36.78
2023-05-14T12:23:44.779Z,37.04
2023-05-14T12:24:58.095Z,37.58
2023-05-14T12:26:08.981Z,38.08
2023-05-14T12:27:12.041Z,38.66
2023-05-14T12:28:16.118Z,38.65
2023-05-14T12:29:19.538Z,38.70
2023-05-14T12:30:22.362Z,39.45
2023-05-14T12:31:32.377Z,40.33
2023-05-14T12:32:35.736Z,39.79
2023-05-14T12:33:38.871Z,39.83
2023-05-14T12:34:41.644Z,38.17
2023-05-14T12:35:44.361Z,37.44
2023-05-14T12:36:47.220Z,36.42
2023-05-14T12:37:50.012Z,36.26
2023-05-14T12:39:01.509Z,35.77
2023-05-14T12:40:09.110Z,35.15
2023-05-14T12:41:11.965Z,35.13
2023-05-14T12:42:15.575Z,34.57
2023-05-14T12:43:18.301Z,33.60
2023-05-14T12:44:22.599Z,33.66
2023-05-14T12:45:25.699Z,33.29
2023-05-14T12:46:28.829Z,32.65
2023-05-14T12:47:32.323Z,32.31
2023-05-14T12:48:35.168Z,31.80
2023-05-14T12:49:38.194Z,31.58
2023-05-14T12:50:40.985Z,31.69
2023-05-14T12:51:44.050Z,31.97
2023-05-14T12:52:46.876Z,31.89
2023-05-14T12:53:51.558Z,32.49
2023-05-14T12:54:54.465Z,32.53
2023-05-14T12:55:57.204Z,33.01
2023-05-14T12:57:00.268Z,33.37
2023-05-14T12:58:03.104Z,33.49
2023-05-14T12:59:05.913Z,34.39
2023-05-14T13:00:14.226Z,33.96
2023-05-14T13:01:17.379Z,33.11
2023-05-14T13:02:20.657Z,32.42
2023-05-14T13:03:24.006Z,32.03
2023-05-14T13:04:26.875Z,32.18
2023-05-14T13:05:29.770Z,32.47
2023-05-14T13:06:32.767Z,32.00
2023-05-14T13:07:36.084Z,32.07
2023-05-14T13:08:39.695Z,32.36
2023-05-14T13:09:43.743Z,32.22
2023-05-14T13:10:47.081Z,32.09
2023-05-14T13:11:49.915Z,31.44
2023-05-14T13:12:52.715Z,30.73
2023-05-14T13:13:55.804Z,30.24
2023-05-14T13:14:58.536Z,30.76
2023-05-14T13:16:01.410Z,30.60
2023-05-14T13:17:05.283Z,29.79
2023-05-14T13:18:08.425Z,29.46
2023-05-14T13:19:11.435Z,28.74
2023-05-14T13:20:15.916Z,28.31
2023-05-14T13:21:18.729Z,28.73
2023-05-14T13:22:21.501Z,28.71
2023-05-14T13:23:24.315Z,28.59
2023-05-14T13:24:27.097Z,28.66
2023-05-14T13:25:29.827Z,28.38
2023-05-14T13:26:32.819Z,28.63
2023-05-14T13:27:38.455Z,28.74
2023-05-14T13:28:41.499Z,28.46
2023-05-14T13:29:44.294Z,29.08
2023-05-14T13:31:05.187Z,30.33
2023-05-14T13:32:08.496Z,31.27
2023-05-14T13:33:11.795Z,32.63
2023-05-14T13:34:14.851Z,32.48
2023-05-14T13:35:17.794Z,32.07
2023-05-14T13:36:20.821Z,32.09
2023-05-14T13:37:24.986Z,31.04
2023-05-14T13:38:27.880Z,31.93
2023-05-14T13:39:30.935Z,31.72
2023-05-14T13:40:33.859Z,31.04
2023-05-14T13:41:37.853Z,30.59
2023-05-14T13:42:40.793Z,30.61
2023-05-14T13:43:43.604Z,30.81
2023-05-14T13:44:46.323Z,30.93
2023-05-14T13:45:50.144Z,31.09